Milton, Canada
Current Conditions -  °F | °C
As of 8:00 PM on Tuesday 27 Jan 2015 (Local Time) from CYYZ Reporting Station
Few Clouds Few Clouds  
Wind Chill: -3°   Ceiling: Unl
Heat Index: 12°   Visibility: 15mi
Dew Point:   Wind: 14mph
Humidity: 62%   Direction: 340°NNW
Pressure: 30.14"   Gusts: NA
Location:  43.51°N, 79.88°W
Report Text: CYYZ 280100Z 34012KT 15SM FEW100 M11/M17 A3014 RMK AC1 SLP220
Loading
Personal Weather Stations






























Interactive Weather Map New forecast layout! Learn more

10-Day Weather Forecast

Advertisements
Track Severe Weather on mobile